sensor_id;sensor_type;location;lat;lon;timestamp;P1;durP1;ratioP1;P2;durP2;ratioP2
3261;SDS011;1643;47.746;9.000;2024-01-25T00:01:09;1.67;;;0.90;;
3261;SDS011;1643;47.746;9.000;2024-01-25T00:03:35;1.73;;;1.00;;
3261;SDS011;1643;47.746;9.000;2024-01-25T00:06:01;1.00;;;0.90;;
3261;SDS011;1643;47.746;9.000;2024-01-25T00:08:27;0.90;;;0.80;;
3261;SDS011;1643;47.746;9.000;2024-01-25T00:10:53;4.37;;;1.20;;
3261;SDS011;1643;47.746;9.000;2024-01-25T00:13:18;0.80;;;0.70;;
3261;SDS011;1643;47.746;9.000;2024-01-25T00:15:44;1.83;;;1.27;;
3261;SDS011;1643;47.746;9.000;2024-01-25T00:18:10;1.33;;;0.80;;
3261;SDS011;1643;47.746;9.000;2024-01-25T00:20:35;2.53;;;0.87;;
3261;SDS011;1643;47.746;9.000;2024-01-25T00:23:01;2.80;;;1.30;;
3261;SDS011;1643;47.746;9.000;2024-01-25T00:25:27;0.80;;;0.80;;
3261;SDS011;1643;47.746;9.000;2024-01-25T00:27:52;4.33;;;1.00;;
3261;SDS011;1643;47.746;9.000;2024-01-25T00:30:18;2.33;;;1.00;;
3261;SDS011;1643;47.746;9.000;2024-01-25T00:32:44;1.93;;;0.90;;
3261;SDS011;1643;47.746;9.000;2024-01-25T00:35:09;1.00;;;0.90;;
3261;SDS011;1643;47.746;9.000;2024-01-25T00:37:38;3.40;;;1.03;;
3261;SDS011;1643;47.746;9.000;2024-01-25T00:40:05;1.10;;;1.00;;
3261;SDS011;1643;47.746;9.000;2024-01-25T00:42:31;4.40;;;0.90;;
3261;SDS011;1643;47.746;9.000;2024-01-25T00:45:00;1.00;;;1.00;;
3261;SDS011;1643;47.746;9.000;2024-01-25T00:47:25;1.60;;;0.90;;
3261;SDS011;1643;47.746;9.000;2024-01-25T00:49:51;1.43;;;0.90;;
3261;SDS011;1643;47.746;9.000;2024-01-25T00:52:17;1.30;;;1.10;;
3261;SDS011;1643;47.746;9.000;2024-01-25T00:54:43;1.67;;;1.00;;
3261;SDS011;1643;47.746;9.000;2024-01-25T00:57:09;1.37;;;1.00;;
3261;SDS011;1643;47.746;9.000;2024-01-25T00:59:35;1.10;;;0.93;;
3261;SDS011;1643;47.746;9.000;2024-01-25T01:02:02;1.23;;;1.03;;
3261;SDS011;1643;47.746;9.000;2024-01-25T01:04:30;2.20;;;1.10;;
3261;SDS011;1643;47.746;9.000;2024-01-25T01:06:56;2.63;;;0.90;;
3261;SDS011;1643;47.746;9.000;2024-01-25T01:09:22;1.53;;;1.20;;
3261;SDS011;1643;47.746;9.000;2024-01-25T01:11:48;1.50;;;1.20;;
3261;SDS011;1643;47.746;9.000;2024-01-25T01:14:15;1.40;;;1.07;;
3261;SDS011;1643;47.746;9.000;2024-01-25T01:16:41;2.93;;;1.53;;
3261;SDS011;1643;47.746;9.000;2024-01-25T01:19:06;1.70;;;1.10;;
3261;SDS011;1643;47.746;9.000;2024-01-25T01:21:33;1.37;;;1.00;;
3261;SDS011;1643;47.746;9.000;2024-01-25T01:23:59;1.20;;;0.90;;
3261;SDS011;1643;47.746;9.000;2024-01-25T01:26:25;2.13;;;1.30;;
3261;SDS011;1643;47.746;9.000;2024-01-25T01:28:50;2.40;;;1.30;;
3261;SDS011;1643;47.746;9.000;2024-01-25T01:31:16;1.20;;;1.10;;
3261;SDS011;1643;47.746;9.000;2024-01-25T01:33:41;1.27;;;1.17;;
3261;SDS011;1643;47.746;9.000;2024-01-25T01:36:07;1.33;;;1.23;;
3261;SDS011;1643;47.746;9.000;2024-01-25T01:38:33;2.20;;;1.33;;
3261;SDS011;1643;47.746;9.000;2024-01-25T01:40:58;1.90;;;1.23;;
3261;SDS011;1643;47.746;9.000;2024-01-25T01:43:24;2.27;;;1.17;;
3261;SDS011;1643;47.746;9.000;2024-01-25T01:45:49;1.33;;;1.20;;
3261;SDS011;1643;47.746;9.000;2024-01-25T01:48:18;0.90;;;0.90;;
3261;SDS011;1643;47.746;9.000;2024-01-25T01:50:43;1.53;;;0.90;;
3261;SDS011;1643;47.746;9.000;2024-01-25T01:53:10;1.20;;;1.00;;
3261;SDS011;1643;47.746;9.000;2024-01-25T01:55:36;3.13;;;1.20;;
3261;SDS011;1643;47.746;9.000;2024-01-25T01:58:03;5.00;;;1.20;;
3261;SDS011;1643;47.746;9.000;2024-01-25T02:00:30;1.83;;;1.17;;
3261;SDS011;1643;47.746;9.000;2024-01-25T02:02:55;1.40;;;1.30;;
3261;SDS011;1643;47.746;9.000;2024-01-25T02:05:24;3.63;;;1.13;;
3261;SDS011;1643;47.746;9.000;2024-01-25T02:07:49;1.63;;;1.07;;
3261;SDS011;1643;47.746;9.000;2024-01-25T02:10:17;2.07;;;1.10;;
3261;SDS011;1643;47.746;9.000;2024-01-25T02:12:43;1.20;;;0.90;;
3261;SDS011;1643;47.746;9.000;2024-01-25T02:15:08;1.73;;;1.23;;
3261;SDS011;1643;47.746;9.000;2024-01-25T02:17:34;3.43;;;1.60;;
3261;SDS011;1643;47.746;9.000;2024-01-25T02:20:00;1.73;;;1.50;;
3261;SDS011;1643;47.746;9.000;2024-01-25T02:22:28;2.03;;;0.90;;
3261;SDS011;1643;47.746;9.000;2024-01-25T02:24:53;2.47;;;1.10;;
3261;SDS011;1643;47.746;9.000;2024-01-25T02:27:19;1.60;;;1.07;;
3261;SDS011;1643;47.746;9.000;2024-01-25T02:29:45;2.10;;;1.10;;
3261;SDS011;1643;47.746;9.000;2024-01-25T02:32:10;1.27;;;1.10;;
3261;SDS011;1643;47.746;9.000;2024-01-25T02:34:36;1.90;;;1.20;;
3261;SDS011;1643;47.746;9.000;2024-01-25T02:37:02;3.83;;;1.30;;
3261;SDS011;1643;47.746;9.000;2024-01-25T02:39:27;1.80;;;1.07;;
3261;SDS011;1643;47.746;9.000;2024-01-25T02:41:53;2.00;;;1.23;;
3261;SDS011;1643;47.746;9.000;2024-01-25T02:44:19;1.40;;;1.10;;
3261;SDS011;1643;47.746;9.000;2024-01-25T02:46:44;2.00;;;1.43;;
3261;SDS011;1643;47.746;9.000;2024-01-25T02:49:11;5.37;;;1.10;;
3261;SDS011;1643;47.746;9.000;2024-01-25T02:51:37;1.37;;;1.20;;
3261;SDS011;1643;47.746;9.000;2024-01-25T02:54:02;2.50;;;1.10;;
3261;SDS011;1643;47.746;9.000;2024-01-25T02:56:28;5.93;;;1.50;;
3261;SDS011;1643;47.746;9.000;2024-01-25T02:58:59;3.63;;;1.70;;
3261;SDS011;1643;47.746;9.000;2024-01-25T03:01:26;3.40;;;1.60;;
3261;SDS011;1643;47.746;9.000;2024-01-25T03:03:52;1.37;;;1.27;;
3261;SDS011;1643;47.746;9.000;2024-01-25T03:06:18;4.13;;;1.30;;
3261;SDS011;1643;47.746;9.000;2024-01-25T03:08:44;1.60;;;1.50;;
3261;SDS011;1643;47.746;9.000;2024-01-25T03:11:10;5.37;;;1.60;;
3261;SDS011;1643;47.746;9.000;2024-01-25T03:13:35;6.03;;;1.50;;
3261;SDS011;1643;47.746;9.000;2024-01-25T03:16:01;1.73;;;1.30;;
3261;SDS011;1643;47.746;9.000;2024-01-25T03:18:27;2.13;;;1.40;;
3261;SDS011;1643;47.746;9.000;2024-01-25T03:20:53;2.33;;;1.20;;
3261;SDS011;1643;47.746;9.000;2024-01-25T03:23:18;2.50;;;1.60;;
3261;SDS011;1643;47.746;9.000;2024-01-25T03:25:44;2.13;;;1.10;;
3261;SDS011;1643;47.746;9.000;2024-01-25T03:28:09;2.70;;;1.30;;
3261;SDS011;1643;47.746;9.000;2024-01-25T03:30:38;2.33;;;1.00;;
3261;SDS011;1643;47.746;9.000;2024-01-25T03:33:03;2.13;;;1.40;;
3261;SDS011;1643;47.746;9.000;2024-01-25T03:35:29;3.17;;;1.10;;
3261;SDS011;1643;47.746;9.000;2024-01-25T03:37:55;2.47;;;1.47;;
3261;SDS011;1643;47.746;9.000;2024-01-25T03:40:20;2.43;;;1.20;;
3261;SDS011;1643;47.746;9.000;2024-01-25T03:42:46;1.30;;;1.00;;
3261;SDS011;1643;47.746;9.000;2024-01-25T03:45:12;1.03;;;0.93;;
3261;SDS011;1643;47.746;9.000;2024-01-25T03:47:37;1.80;;;1.63;;
3261;SDS011;1643;47.746;9.000;2024-01-25T03:50:03;3.30;;;1.60;;
3261;SDS011;1643;47.746;9.000;2024-01-25T03:52:29;5.60;;;1.50;;
3261;SDS011;1643;47.746;9.000;2024-01-25T03:54:55;1.73;;;1.40;;
3261;SDS011;1643;47.746;9.000;2024-01-25T03:57:21;0.97;;;0.97;;
3261;SDS011;1643;47.746;9.000;2024-01-25T03:59:46;1.50;;;1.20;;
3261;SDS011;1643;47.746;9.000;2024-01-25T04:02:12;2.63;;;1.13;;
3261;SDS011;1643;47.746;9.000;2024-01-25T04:04:38;3.50;;;1.37;;
3261;SDS011;1643;47.746;9.000;2024-01-25T04:07:03;2.00;;;1.10;;
3261;SDS011;1643;47.746;9.000;2024-01-25T04:09:29;1.83;;;1.73;;
3261;SDS011;1643;47.746;9.000;2024-01-25T04:11:55;3.70;;;1.30;;
3261;SDS011;1643;47.746;9.000;2024-01-25T04:14:21;1.97;;;1.30;;
3261;SDS011;1643;47.746;9.000;2024-01-25T04:16:46;1.73;;;1.20;;
3261;SDS011;1643;47.746;9.000;2024-01-25T04:19:12;1.37;;;1.10;;
3261;SDS011;1643;47.746;9.000;2024-01-25T04:21:38;2.50;;;1.40;;
3261;SDS011;1643;47.746;9.000;2024-01-25T04:24:04;1.47;;;1.37;;
3261;SDS011;1643;47.746;9.000;2024-01-25T04:26:29;5.00;;;1.53;;
3261;SDS011;1643;47.746;9.000;2024-01-25T04:28:55;1.37;;;1.27;;
3261;SDS011;1643;47.746;9.000;2024-01-25T04:31:21;1.30;;;1.20;;
3261;SDS011;1643;47.746;9.000;2024-01-25T04:33:46;2.20;;;1.40;;
3261;SDS011;1643;47.746;9.000;2024-01-25T04:36:12;2.97;;;1.53;;
3261;SDS011;1643;47.746;9.000;2024-01-25T04:38:38;1.50;;;1.40;;
3261;SDS011;1643;47.746;9.000;2024-01-25T04:41:03;3.33;;;1.73;;
3261;SDS011;1643;47.746;9.000;2024-01-25T04:43:33;2.27;;;1.47;;
3261;SDS011;1643;47.746;9.000;2024-01-25T04:46:00;1.30;;;1.20;;
3261;SDS011;1643;47.746;9.000;2024-01-25T04:48:26;1.40;;;1.30;;
3261;SDS011;1643;47.746;9.000;2024-01-25T04:50:51;2.63;;;1.50;;
3261;SDS011;1643;47.746;9.000;2024-01-25T04:53:17;1.40;;;1.30;;
3261;SDS011;1643;47.746;9.000;2024-01-25T04:55:42;1.83;;;1.50;;
3261;SDS011;1643;47.746;9.000;2024-01-25T04:58:08;3.13;;;1.53;;
3261;SDS011;1643;47.746;9.000;2024-01-25T05:00:34;1.93;;;1.73;;
3261;SDS011;1643;47.746;9.000;2024-01-25T05:03:01;2.87;;;2.13;;
3261;SDS011;1643;47.746;9.000;2024-01-25T05:05:27;2.03;;;1.90;;
3261;SDS011;1643;47.746;9.000;2024-01-25T05:07:53;1.80;;;1.67;;
3261;SDS011;1643;47.746;9.000;2024-01-25T05:10:18;2.17;;;2.07;;
3261;SDS011;1643;47.746;9.000;2024-01-25T05:12:44;1.67;;;1.57;;
3261;SDS011;1643;47.746;9.000;2024-01-25T05:15:10;1.83;;;1.40;;
3261;SDS011;1643;47.746;9.000;2024-01-25T05:17:35;2.13;;;1.80;;
3261;SDS011;1643;47.746;9.000;2024-01-25T05:20:01;2.37;;;1.87;;
3261;SDS011;1643;47.746;9.000;2024-01-25T05:22:27;1.90;;;1.80;;
3261;SDS011;1643;47.746;9.000;2024-01-25T05:24:53;2.93;;;2.50;;
3261;SDS011;1643;47.746;9.000;2024-01-25T05:27:19;2.00;;;1.80;;
3261;SDS011;1643;47.746;9.000;2024-01-25T05:29:44;2.87;;;2.00;;
3261;SDS011;1643;47.746;9.000;2024-01-25T05:32:10;3.47;;;2.20;;
3261;SDS011;1643;47.746;9.000;2024-01-25T05:34:35;1.47;;;1.20;;
3261;SDS011;1643;47.746;9.000;2024-01-25T05:37:01;2.03;;;1.50;;
3261;SDS011;1643;47.746;9.000;2024-01-25T05:39:27;4.63;;;1.90;;
3261;SDS011;1643;47.746;9.000;2024-01-25T05:41:53;3.47;;;1.97;;
3261;SDS011;1643;47.746;9.000;2024-01-25T05:44:21;1.97;;;1.77;;
3261;SDS011;1643;47.746;9.000;2024-01-25T05:46:47;1.83;;;1.70;;
3261;SDS011;1643;47.746;9.000;2024-01-25T05:49:13;4.63;;;1.70;;
3261;SDS011;1643;47.746;9.000;2024-01-25T05:51:39;3.93;;;1.40;;
3261;SDS011;1643;47.746;9.000;2024-01-25T05:54:04;3.00;;;1.97;;
3261;SDS011;1643;47.746;9.000;2024-01-25T05:56:30;2.73;;;1.60;;
3261;SDS011;1643;47.746;9.000;2024-01-25T05:58:56;2.60;;;1.70;;
3261;SDS011;1643;47.746;9.000;2024-01-25T06:01:22;1.90;;;1.50;;
3261;SDS011;1643;47.746;9.000;2024-01-25T06:03:48;4.17;;;1.70;;
3261;SDS011;1643;47.746;9.000;2024-01-25T06:06:13;3.40;;;1.13;;
3261;SDS011;1643;47.746;9.000;2024-01-25T06:08:39;5.33;;;1.73;;
3261;SDS011;1643;47.746;9.000;2024-01-25T06:11:04;2.40;;;1.30;;
3261;SDS011;1643;47.746;9.000;2024-01-25T06:13:31;1.70;;;1.60;;
3261;SDS011;1643;47.746;9.000;2024-01-25T06:15:57;2.00;;;1.37;;
3261;SDS011;1643;47.746;9.000;2024-01-25T06:18:22;4.60;;;1.73;;
3261;SDS011;1643;47.746;9.000;2024-01-25T06:20:48;1.70;;;1.40;;
3261;SDS011;1643;47.746;9.000;2024-01-25T06:23:13;1.63;;;1.20;;
3261;SDS011;1643;47.746;9.000;2024-01-25T06:25:39;2.13;;;1.70;;
3261;SDS011;1643;47.746;9.000;2024-01-25T06:28:05;1.40;;;1.30;;
3261;SDS011;1643;47.746;9.000;2024-01-25T06:30:30;2.13;;;1.57;;
3261;SDS011;1643;47.746;9.000;2024-01-25T06:32:56;2.13;;;1.93;;
3261;SDS011;1643;47.746;9.000;2024-01-25T06:35:22;1.93;;;1.77;;
3261;SDS011;1643;47.746;9.000;2024-01-25T06:37:47;2.70;;;1.60;;
3261;SDS011;1643;47.746;9.000;2024-01-25T06:40:13;2.87;;;1.90;;
3261;SDS011;1643;47.746;9.000;2024-01-25T06:42:39;4.30;;;2.03;;
3261;SDS011;1643;47.746;9.000;2024-01-25T06:45:05;5.10;;;1.80;;
3261;SDS011;1643;47.746;9.000;2024-01-25T06:47:30;2.10;;;1.60;;
3261;SDS011;1643;47.746;9.000;2024-01-25T06:49:56;5.73;;;1.90;;
3261;SDS011;1643;47.746;9.000;2024-01-25T06:52:21;1.63;;;1.40;;
3261;SDS011;1643;47.746;9.000;2024-01-25T06:54:47;1.80;;;1.50;;
3261;SDS011;1643;47.746;9.000;2024-01-25T06:57:13;3.03;;;1.53;;
3261;SDS011;1643;47.746;9.000;2024-01-25T06:59:41;5.57;;;1.40;;
3261;SDS011;1643;47.746;9.000;2024-01-25T07:02:07;2.30;;;1.50;;
3261;SDS011;1643;47.746;9.000;2024-01-25T07:04:34;4.00;;;2.00;;
3261;SDS011;1643;47.746;9.000;2024-01-25T07:06:59;4.73;;;1.90;;
3261;SDS011;1643;47.746;9.000;2024-01-25T07:09:25;3.23;;;1.77;;
3261;SDS011;1643;47.746;9.000;2024-01-25T07:11:51;2.00;;;1.80;;
3261;SDS011;1643;47.746;9.000;2024-01-25T07:14:16;5.20;;;1.87;;
3261;SDS011;1643;47.746;9.000;2024-01-25T07:16:42;3.17;;;2.03;;
3261;SDS011;1643;47.746;9.000;2024-01-25T07:19:08;2.60;;;2.40;;
3261;SDS011;1643;47.746;9.000;2024-01-25T07:21:33;2.73;;;1.80;;
3261;SDS011;1643;47.746;9.000;2024-01-25T07:24:02;2.97;;;1.67;;
3261;SDS011;1643;47.746;9.000;2024-01-25T07:26:29;2.70;;;1.97;;
3261;SDS011;1643;47.746;9.000;2024-01-25T07:28:55;2.53;;;2.10;;
3261;SDS011;1643;47.746;9.000;2024-01-25T07:31:24;2.73;;;1.87;;
3261;SDS011;1643;47.746;9.000;2024-01-25T07:33:50;2.50;;;2.10;;
3261;SDS011;1643;47.746;9.000;2024-01-25T07:36:17;3.37;;;2.60;;
3261;SDS011;1643;47.746;9.000;2024-01-25T07:38:43;4.80;;;4.00;;
3261;SDS011;1643;47.746;9.000;2024-01-25T07:41:09;4.47;;;4.17;;
3261;SDS011;1643;47.746;9.000;2024-01-25T07:43:35;5.30;;;4.37;;
3261;SDS011;1643;47.746;9.000;2024-01-25T07:46:00;5.37;;;3.30;;
3261;SDS011;1643;47.746;9.000;2024-01-25T07:48:26;5.70;;;3.20;;
3261;SDS011;1643;47.746;9.000;2024-01-25T07:50:51;3.00;;;2.37;;
3261;SDS011;1643;47.746;9.000;2024-01-25T07:53:17;3.70;;;2.67;;
3261;SDS011;1643;47.746;9.000;2024-01-25T07:55:43;3.33;;;2.37;;
3261;SDS011;1643;47.746;9.000;2024-01-25T07:58:10;3.27;;;2.73;;
3261;SDS011;1643;47.746;9.000;2024-01-25T08:00:36;3.13;;;2.83;;
3261;SDS011;1643;47.746;9.000;2024-01-25T08:03:02;2.30;;;2.10;;
3261;SDS011;1643;47.746;9.000;2024-01-25T08:05:28;4.77;;;3.63;;
3261;SDS011;1643;47.746;9.000;2024-01-25T08:07:53;4.33;;;3.13;;
3261;SDS011;1643;47.746;9.000;2024-01-25T08:10:19;5.60;;;3.93;;
3261;SDS011;1643;47.746;9.000;2024-01-25T08:12:44;5.77;;;2.90;;
3261;SDS011;1643;47.746;9.000;2024-01-25T08:15:12;4.60;;;3.70;;
3261;SDS011;1643;47.746;9.000;2024-01-25T08:17:39;4.23;;;3.20;;
3261;SDS011;1643;47.746;9.000;2024-01-25T08:20:05;5.23;;;3.17;;
3261;SDS011;1643;47.746;9.000;2024-01-25T08:22:31;4.50;;;3.50;;
3261;SDS011;1643;47.746;9.000;2024-01-25T08:24:57;6.93;;;3.50;;
3261;SDS011;1643;47.746;9.000;2024-01-25T08:27:23;6.60;;;4.50;;
3261;SDS011;1643;47.746;9.000;2024-01-25T08:29:49;6.27;;;4.87;;
3261;SDS011;1643;47.746;9.000;2024-01-25T08:32:15;7.10;;;5.13;;
3261;SDS011;1643;47.746;9.000;2024-01-25T08:34:40;10.60;;;5.27;;
3261;SDS011;1643;47.746;9.000;2024-01-25T08:37:06;9.67;;;5.60;;
3261;SDS011;1643;47.746;9.000;2024-01-25T08:39:32;8.67;;;5.47;;
3261;SDS011;1643;47.746;9.000;2024-01-25T08:41:58;9.17;;;5.60;;
3261;SDS011;1643;47.746;9.000;2024-01-25T08:44:26;6.63;;;5.40;;
3261;SDS011;1643;47.746;9.000;2024-01-25T08:46:52;7.77;;;5.03;;
3261;SDS011;1643;47.746;9.000;2024-01-25T08:49:18;7.50;;;4.63;;
3261;SDS011;1643;47.746;9.000;2024-01-25T08:51:43;7.17;;;4.60;;
3261;SDS011;1643;47.746;9.000;2024-01-25T08:54:09;4.00;;;3.10;;
3261;SDS011;1643;47.746;9.000;2024-01-25T08:56:35;3.77;;;2.80;;
3261;SDS011;1643;47.746;9.000;2024-01-25T08:59:00;4.77;;;3.67;;
3261;SDS011;1643;47.746;9.000;2024-01-25T09:01:26;5.87;;;3.07;;
3261;SDS011;1643;47.746;9.000;2024-01-25T09:03:52;9.30;;;3.40;;
3261;SDS011;1643;47.746;9.000;2024-01-25T09:06:18;5.33;;;2.97;;
3261;SDS011;1643;47.746;9.000;2024-01-25T09:08:43;4.70;;;2.90;;
3261;SDS011;1643;47.746;9.000;2024-01-25T09:11:09;6.50;;;3.20;;
3261;SDS011;1643;47.746;9.000;2024-01-25T09:13:35;5.43;;;2.80;;
3261;SDS011;1643;47.746;9.000;2024-01-25T09:16:00;5.47;;;3.00;;
3261;SDS011;1643;47.746;9.000;2024-01-25T09:18:26;6.70;;;2.90;;
3261;SDS011;1643;47.746;9.000;2024-01-25T09:20:53;4.70;;;2.87;;
3261;SDS011;1643;47.746;9.000;2024-01-25T09:23:18;2.70;;;2.50;;
3261;SDS011;1643;47.746;9.000;2024-01-25T09:25:45;4.27;;;2.73;;
3261;SDS011;1643;47.746;9.000;2024-01-25T09:28:10;5.10;;;2.30;;
3261;SDS011;1643;47.746;9.000;2024-01-25T09:30:37;5.50;;;2.90;;
3261;SDS011;1643;47.746;9.000;2024-01-25T09:33:08;7.27;;;3.20;;
3261;SDS011;1643;47.746;9.000;2024-01-25T09:35:34;3.77;;;2.80;;
3261;SDS011;1643;47.746;9.000;2024-01-25T09:37:59;4.57;;;3.10;;
3261;SDS011;1643;47.746;9.000;2024-01-25T09:40:25;3.53;;;2.33;;
3261;SDS011;1643;47.746;9.000;2024-01-25T09:42:51;2.13;;;1.93;;
3261;SDS011;1643;47.746;9.000;2024-01-25T09:45:18;3.57;;;2.43;;
3261;SDS011;1643;47.746;9.000;2024-01-25T09:47:44;4.03;;;2.30;;
3261;SDS011;1643;47.746;9.000;2024-01-25T09:50:10;3.83;;;2.67;;
3261;SDS011;1643;47.746;9.000;2024-01-25T09:52:37;6.40;;;2.20;;
3261;SDS011;1643;47.746;9.000;2024-01-25T09:55:05;2.90;;;1.93;;
3261;SDS011;1643;47.746;9.000;2024-01-25T09:57:32;2.23;;;2.00;;
3261;SDS011;1643;47.746;9.000;2024-01-25T10:00:02;3.83;;;2.00;;
3261;SDS011;1643;47.746;9.000;2024-01-25T10:02:28;9.10;;;1.83;;
3261;SDS011;1643;47.746;9.000;2024-01-25T10:04:54;3.00;;;1.70;;
3261;SDS011;1643;47.746;9.000;2024-01-25T10:07:38;2.73;;;2.00;;
3261;SDS011;1643;47.746;9.000;2024-01-25T10:10:05;3.07;;;2.10;;
3261;SDS011;1643;47.746;9.000;2024-01-25T10:12:31;2.40;;;2.20;;
3261;SDS011;1643;47.746;9.000;2024-01-25T10:14:57;2.10;;;1.90;;
3261;SDS011;1643;47.746;9.000;2024-01-25T10:17:24;2.70;;;2.00;;
3261;SDS011;1643;47.746;9.000;2024-01-25T10:19:50;4.33;;;1.80;;
3261;SDS011;1643;47.746;9.000;2024-01-25T10:22:16;2.87;;;1.67;;
3261;SDS011;1643;47.746;9.000;2024-01-25T10:24:42;2.20;;;1.60;;
3261;SDS011;1643;47.746;9.000;2024-01-25T10:27:08;3.77;;;1.77;;
3261;SDS011;1643;47.746;9.000;2024-01-25T10:29:34;2.20;;;1.90;;
3261;SDS011;1643;47.746;9.000;2024-01-25T10:32:00;2.40;;;1.87;;
3261;SDS011;1643;47.746;9.000;2024-01-25T10:34:29;1.77;;;1.40;;
3261;SDS011;1643;47.746;9.000;2024-01-25T10:36:56;5.20;;;1.60;;
3261;SDS011;1643;47.746;9.000;2024-01-25T10:39:22;2.80;;;1.90;;
3261;SDS011;1643;47.746;9.000;2024-01-25T10:41:50;6.80;;;1.87;;
3261;SDS011;1643;47.746;9.000;2024-01-25T10:44:19;4.33;;;2.13;;
3261;SDS011;1643;47.746;9.000;2024-01-25T10:46:48;5.73;;;2.50;;
3261;SDS011;1643;47.746;9.000;2024-01-25T10:49:14;2.33;;;2.10;;
3261;SDS011;1643;47.746;9.000;2024-01-25T10:51:43;3.13;;;2.20;;
3261;SDS011;1643;47.746;9.000;2024-01-25T10:54:13;5.13;;;3.10;;
3261;SDS011;1643;47.746;9.000;2024-01-25T10:56:43;3.87;;;2.20;;
3261;SDS011;1643;47.746;9.000;2024-01-25T10:59:12;3.17;;;2.00;;
3261;SDS011;1643;47.746;9.000;2024-01-25T11:01:42;2.70;;;1.97;;
3261;SDS011;1643;47.746;9.000;2024-01-25T11:04:13;2.90;;;2.13;;
3261;SDS011;1643;47.746;9.000;2024-01-25T11:06:40;3.80;;;2.63;;
3261;SDS011;1643;47.746;9.000;2024-01-25T11:09:07;2.87;;;2.60;;
3261;SDS011;1643;47.746;9.000;2024-01-25T11:11:36;3.30;;;2.30;;
3261;SDS011;1643;47.746;9.000;2024-01-25T11:14:04;3.40;;;2.30;;
3261;SDS011;1643;47.746;9.000;2024-01-25T11:16:38;4.77;;;2.53;;
3261;SDS011;1643;47.746;9.000;2024-01-25T11:19:07;3.00;;;2.70;;
3261;SDS011;1643;47.746;9.000;2024-01-25T11:21:42;2.60;;;2.10;;
3261;SDS011;1643;47.746;9.000;2024-01-25T11:24:16;2.40;;;1.50;;
3261;SDS011;1643;47.746;9.000;2024-01-25T11:26:51;2.03;;;1.60;;
3261;SDS011;1643;47.746;9.000;2024-01-25T11:29:19;1.50;;;1.40;;
3261;SDS011;1643;47.746;9.000;2024-01-25T11:31:48;2.83;;;1.93;;
3261;SDS011;1643;47.746;9.000;2024-01-25T11:34:15;2.00;;;1.80;;
3261;SDS011;1643;47.746;9.000;2024-01-25T11:36:42;1.73;;;1.63;;
3261;SDS011;1643;47.746;9.000;2024-01-25T11:39:11;3.57;;;1.53;;
3261;SDS011;1643;47.746;9.000;2024-01-25T11:41:37;2.87;;;1.63;;
3261;SDS011;1643;47.746;9.000;2024-01-25T11:44:03;1.60;;;1.50;;
3261;SDS011;1643;47.746;9.000;2024-01-25T11:46:32;1.57;;;1.40;;
3261;SDS011;1643;47.746;9.000;2024-01-25T11:48:58;1.90;;;1.50;;
3261;SDS011;1643;47.746;9.000;2024-01-25T11:51:24;3.03;;;1.33;;
3261;SDS011;1643;47.746;9.000;2024-01-25T11:53:50;1.43;;;1.10;;
3261;SDS011;1643;47.746;9.000;2024-01-25T11:56:23;2.30;;;1.30;;
3261;SDS011;1643;47.746;9.000;2024-01-25T11:58:56;1.10;;;1.00;;
3261;SDS011;1643;47.746;9.000;2024-01-25T12:01:23;1.30;;;1.00;;
3261;SDS011;1643;47.746;9.000;2024-01-25T12:03:49;0.90;;;0.90;;
3261;SDS011;1643;47.746;9.000;2024-01-25T12:06:16;2.93;;;1.40;;
3261;SDS011;1643;47.746;9.000;2024-01-25T12:08:44;1.27;;;1.03;;
3261;SDS011;1643;47.746;9.000;2024-01-25T12:11:10;1.20;;;1.10;;
3261;SDS011;1643;47.746;9.000;2024-01-25T12:13:40;0.80;;;0.80;;
3261;SDS011;1643;47.746;9.000;2024-01-25T12:16:07;2.27;;;1.00;;
3261;SDS011;1643;47.746;9.000;2024-01-25T12:18:33;0.83;;;0.80;;
3261;SDS011;1643;47.746;9.000;2024-01-25T12:21:03;2.20;;;0.90;;
3261;SDS011;1643;47.746;9.000;2024-01-25T12:23:34;0.70;;;0.70;;
3261;SDS011;1643;47.746;9.000;2024-01-25T12:26:04;1.90;;;0.90;;
3261;SDS011;1643;47.746;9.000;2024-01-25T12:28:31;2.20;;;1.10;;
3261;SDS011;1643;47.746;9.000;2024-01-25T12:31:03;2.50;;;1.20;;
3261;SDS011;1643;47.746;9.000;2024-01-25T12:33:31;1.73;;;1.20;;
3261;SDS011;1643;47.746;9.000;2024-01-25T12:35:57;1.83;;;1.00;;
3261;SDS011;1643;47.746;9.000;2024-01-25T12:38:23;1.23;;;1.10;;
3261;SDS011;1643;47.746;9.000;2024-01-25T12:40:50;1.00;;;0.90;;
3261;SDS011;1643;47.746;9.000;2024-01-25T12:43:17;1.67;;;1.53;;
3261;SDS011;1643;47.746;9.000;2024-01-25T12:45:43;1.10;;;1.00;;
3261;SDS011;1643;47.746;9.000;2024-01-25T12:48:09;1.00;;;0.83;;
3261;SDS011;1643;47.746;9.000;2024-01-25T12:50:35;0.90;;;0.90;;
3261;SDS011;1643;47.746;9.000;2024-01-25T12:53:01;2.73;;;1.20;;
3261;SDS011;1643;47.746;9.000;2024-01-25T12:55:28;1.97;;;1.17;;
3261;SDS011;1643;47.746;9.000;2024-01-25T12:57:55;1.73;;;1.60;;
3261;SDS011;1643;47.746;9.000;2024-01-25T13:00:24;3.50;;;2.33;;
3261;SDS011;1643;47.746;9.000;2024-01-25T13:02:50;2.83;;;1.70;;
3261;SDS011;1643;47.746;9.000;2024-01-25T13:05:16;1.00;;;0.90;;
3261;SDS011;1643;47.746;9.000;2024-01-25T13:07:41;1.43;;;1.33;;
3261;SDS011;1643;47.746;9.000;2024-01-25T13:10:10;1.97;;;1.30;;
3261;SDS011;1643;47.746;9.000;2024-01-25T13:12:39;1.30;;;1.20;;
3261;SDS011;1643;47.746;9.000;2024-01-25T13:15:05;1.43;;;0.97;;
3261;SDS011;1643;47.746;9.000;2024-01-25T13:17:31;1.10;;;1.00;;
3261;SDS011;1643;47.746;9.000;2024-01-25T13:19:57;1.17;;;1.07;;
3261;SDS011;1643;47.746;9.000;2024-01-25T13:22:22;1.20;;;1.10;;
3261;SDS011;1643;47.746;9.000;2024-01-25T13:24:49;1.87;;;1.13;;
3261;SDS011;1643;47.746;9.000;2024-01-25T13:27:15;2.10;;;1.40;;
3261;SDS011;1643;47.746;9.000;2024-01-25T13:29:41;1.90;;;1.30;;
3261;SDS011;1643;47.746;9.000;2024-01-25T13:32:07;1.30;;;1.20;;
3261;SDS011;1643;47.746;9.000;2024-01-25T13:34:33;2.20;;;1.23;;
3261;SDS011;1643;47.746;9.000;2024-01-25T13:36:59;1.73;;;1.10;;
3261;SDS011;1643;47.746;9.000;2024-01-25T13:39:25;1.97;;;1.30;;
3261;SDS011;1643;47.746;9.000;2024-01-25T13:41:51;1.27;;;1.17;;
3261;SDS011;1643;47.746;9.000;2024-01-25T13:44:16;3.07;;;1.20;;
3261;SDS011;1643;47.746;9.000;2024-01-25T13:46:42;7.63;;;4.00;;
3261;SDS011;1643;47.746;9.000;2024-01-25T13:49:08;8.10;;;4.30;;
3261;SDS011;1643;47.746;9.000;2024-01-25T13:51:33;3.30;;;2.60;;
3261;SDS011;1643;47.746;9.000;2024-01-25T13:53:59;4.03;;;2.40;;
3261;SDS011;1643;47.746;9.000;2024-01-25T13:56:25;3.43;;;1.93;;
3261;SDS011;1643;47.746;9.000;2024-01-25T13:58:51;1.43;;;1.33;;
3261;SDS011;1643;47.746;9.000;2024-01-25T14:01:17;3.20;;;1.90;;
3261;SDS011;1643;47.746;9.000;2024-01-25T14:03:42;7.00;;;5.17;;
3261;SDS011;1643;47.746;9.000;2024-01-25T14:06:08;9.07;;;5.17;;
3261;SDS011;1643;47.746;9.000;2024-01-25T14:08:35;7.03;;;3.83;;
3261;SDS011;1643;47.746;9.000;2024-01-25T14:11:01;2.40;;;2.20;;
3261;SDS011;1643;47.746;9.000;2024-01-25T14:13:27;2.07;;;1.70;;
3261;SDS011;1643;47.746;9.000;2024-01-25T14:15:53;1.97;;;1.60;;
3261;SDS011;1643;47.746;9.000;2024-01-25T14:18:19;3.10;;;2.77;;
3261;SDS011;1643;47.746;9.000;2024-01-25T14:20:44;5.63;;;2.63;;
3261;SDS011;1643;47.746;9.000;2024-01-25T14:23:10;2.33;;;1.90;;
3261;SDS011;1643;47.746;9.000;2024-01-25T14:25:36;4.20;;;2.30;;
3261;SDS011;1643;47.746;9.000;2024-01-25T14:28:01;2.30;;;1.93;;
3261;SDS011;1643;47.746;9.000;2024-01-25T14:30:27;1.50;;;1.40;;
3261;SDS011;1643;47.746;9.000;2024-01-25T14:32:54;1.93;;;1.83;;
3261;SDS011;1643;47.746;9.000;2024-01-25T14:35:21;2.43;;;1.23;;
3261;SDS011;1643;47.746;9.000;2024-01-25T14:37:53;1.60;;;1.50;;
3261;SDS011;1643;47.746;9.000;2024-01-25T14:40:19;4.30;;;1.90;;
3261;SDS011;1643;47.746;9.000;2024-01-25T14:42:45;1.77;;;1.50;;
3261;SDS011;1643;47.746;9.000;2024-01-25T14:45:11;1.50;;;1.40;;
3261;SDS011;1643;47.746;9.000;2024-01-25T14:47:36;2.30;;;1.67;;
3261;SDS011;1643;47.746;9.000;2024-01-25T14:50:02;2.90;;;1.63;;
3261;SDS011;1643;47.746;9.000;2024-01-25T14:52:28;4.03;;;2.37;;
3261;SDS011;1643;47.746;9.000;2024-01-25T14:54:53;3.63;;;2.60;;
3261;SDS011;1643;47.746;9.000;2024-01-25T14:57:19;2.47;;;2.27;;
3261;SDS011;1643;47.746;9.000;2024-01-25T14:59:44;2.60;;;2.20;;
3261;SDS011;1643;47.746;9.000;2024-01-25T15:02:11;2.00;;;1.90;;
3261;SDS011;1643;47.746;9.000;2024-01-25T15:04:37;2.40;;;2.17;;
3261;SDS011;1643;47.746;9.000;2024-01-25T15:07:02;2.53;;;2.17;;
3261;SDS011;1643;47.746;9.000;2024-01-25T15:09:28;2.60;;;2.40;;